createdAt,value
2019-03-15T00:00:51.613Z,0.00
2019-03-15T00:01:51.697Z,0.00
2019-03-15T00:02:51.558Z,0.00
2019-03-15T00:03:51.565Z,0.00
2019-03-15T00:04:51.507Z,0.00
2019-03-15T00:06:51.855Z,0.00
2019-03-15T00:07:51.447Z,0.00
2019-03-15T00:08:51.409Z,0.00
2019-03-15T00:09:51.381Z,0.00
2019-03-15T00:10:51.409Z,0.00
2019-03-15T00:11:51.330Z,0.00
2019-03-15T00:12:51.634Z,0.00
2019-03-15T00:13:51.335Z,0.00
2019-03-15T00:14:51.261Z,0.00
2019-03-15T00:15:51.238Z,0.00
2019-03-15T00:16:51.225Z,0.00
2019-03-15T00:17:51.252Z,0.00
2019-03-15T00:18:51.160Z,0.00
2019-03-15T00:19:51.388Z,0.00
2019-03-15T00:20:51.136Z,0.00
2019-03-15T00:21:51.270Z,0.00
2019-03-15T00:22:51.169Z,0.00
2019-03-15T00:23:51.039Z,0.00
2019-03-15T00:24:51.014Z,0.00
2019-03-15T00:25:50.993Z,0.00
2019-03-15T00:26:51.263Z,0.00
2019-03-15T00:27:51.052Z,0.00
2019-03-15T00:28:51.232Z,0.00
2019-03-15T00:29:50.893Z,0.00
2019-03-15T00:30:50.871Z,0.00
2019-03-15T00:31:50.844Z,0.00
2019-03-15T00:32:50.823Z,0.00
2019-03-15T00:33:51.094Z,0.00
2019-03-15T00:34:50.767Z,0.00
2019-03-15T00:35:50.910Z,0.00
2019-03-15T00:36:50.732Z,0.00
2019-03-15T00:39:50.646Z,0.00
2019-03-15T00:40:50.922Z,0.00
2019-03-15T00:41:50.600Z,0.00
2019-03-15T00:42:50.576Z,0.00
2019-03-15T00:43:50.549Z,0.00
2019-03-15T00:44:50.525Z,0.00
2019-03-15T00:46:50.474Z,0.00
2019-03-15T00:47:50.812Z,0.00
2019-03-15T00:48:50.435Z,0.00
2019-03-15T00:49:50.408Z,0.00
2019-03-15T00:50:50.376Z,0.00
2019-03-15T00:51:50.367Z,0.00
2019-03-15T00:52:50.328Z,0.00
2019-03-15T00:53:50.305Z,0.00
2019-03-15T00:54:50.577Z,0.00
2019-03-15T00:55:50.257Z,0.00
2019-03-15T00:56:50.230Z,0.00
2019-03-15T00:57:50.221Z,0.00
2019-03-15T00:59:50.168Z,0.00
2019-03-15T01:00:50.137Z,0.00
2019-03-15T01:01:50.412Z,0.00
2019-03-15T01:02:50.142Z,0.00
2019-03-15T01:03:50.086Z,0.00
2019-03-15T01:04:50.036Z,0.00
2019-03-15T01:05:50.010Z,0.00
2019-03-15T01:06:49.999Z,0.00
2019-03-15T01:07:50.264Z,0.00
2019-03-15T01:08:49.938Z,0.00
2019-03-15T01:09:49.915Z,0.00
2019-03-15T01:10:50.184Z,0.00
2019-03-15T01:11:49.861Z,0.00
2019-03-15T01:12:50.621Z,0.00
2019-03-15T01:13:50.084Z,0.00
2019-03-15T01:14:49.814Z,0.00
2019-03-15T01:15:49.765Z,0.00
2019-03-15T01:16:49.737Z,0.00
2019-03-15T01:17:49.728Z,0.00
2019-03-15T01:18:49.692Z,0.00
2019-03-15T01:19:49.972Z,0.00
2019-03-15T01:20:49.641Z,0.00
2019-03-15T01:21:49.714Z,0.00
2019-03-15T01:22:49.597Z,0.00
2019-03-15T01:23:49.566Z,0.00
2019-03-15T01:25:49.824Z,0.00
2019-03-15T01:26:49.495Z,0.00
2019-03-15T01:27:49.472Z,0.00
2019-03-15T01:28:49.500Z,0.00
2019-03-15T01:29:49.526Z,0.00
2019-03-15T01:30:49.398Z,0.00
2019-03-15T01:31:49.618Z,0.00
2019-03-15T01:32:49.350Z,0.00
2019-03-15T01:33:49.631Z,0.00
2019-03-15T01:34:49.299Z,0.00
2019-03-15T01:35:49.575Z,0.00
2019-03-15T01:36:49.248Z,0.00
2019-03-15T01:37:49.222Z,0.00
2019-03-15T01:38:49.516Z,0.00
2019-03-15T01:39:49.178Z,0.00
2019-03-15T01:40:49.263Z,0.00
2019-03-15T01:42:49.116Z,0.00
2019-03-15T01:43:49.080Z,0.00
2019-03-15T01:46:49.325Z,0.00
2019-03-15T01:47:48.983Z,0.00
2019-03-15T01:48:48.957Z,0.00
2019-03-15T01:49:48.948Z,0.00
2019-03-15T01:50:48.906Z,0.00
2019-03-15T01:51:48.980Z,0.00
2019-03-15T01:52:49.154Z,0.00
2019-03-15T01:53:48.829Z,0.00
2019-03-15T01:54:48.808Z,0.00
2019-03-15T01:55:48.813Z,0.00
2019-03-15T01:56:48.763Z,0.00
2019-03-15T01:57:48.731Z,0.00
2019-03-15T01:58:48.707Z,0.00
2019-03-15T01:59:48.992Z,0.00
2019-03-15T02:00:48.663Z,0.00
2019-03-15T02:01:48.750Z,0.00
2019-03-15T02:02:48.721Z,0.00
2019-03-15T02:04:48.613Z,0.00
2019-03-15T02:05:48.559Z,0.00
2019-03-15T02:06:48.816Z,0.00
2019-03-15T02:07:48.492Z,0.00
2019-03-15T02:08:48.464Z,0.00
2019-03-15T02:09:48.452Z,0.00
2019-03-15T02:10:48.415Z,0.00
2019-03-15T02:12:48.707Z,0.00
2019-03-15T02:13:48.345Z,0.00
2019-03-15T02:14:48.332Z,0.00
2019-03-15T02:15:48.307Z,0.00
2019-03-15T02:16:48.287Z,0.00
2019-03-15T02:17:48.243Z,0.00
2019-03-15T02:18:48.235Z,0.00
2019-03-15T02:19:48.503Z,0.00
2019-03-15T02:20:48.169Z,0.00
2019-03-15T02:21:48.148Z,0.00
2019-03-15T02:22:48.124Z,0.00
2019-03-15T02:23:48.467Z,0.00
2019-03-15T02:25:48.356Z,0.00
2019-03-15T02:26:48.899Z,0.00
2019-03-15T02:27:48.006Z,0.00
2019-03-15T02:28:48.076Z,0.00
2019-03-15T02:29:47.952Z,0.00
2019-03-15T02:32:48.178Z,0.00
2019-03-15T02:33:47.859Z,0.00
2019-03-15T02:34:47.864Z,0.00
2019-03-15T02:35:47.828Z,0.00
2019-03-15T02:36:48.115Z,0.00
2019-03-15T02:37:47.960Z,0.00
2019-03-15T02:38:47.998Z,0.00
2019-03-15T02:39:47.711Z,0.00
2019-03-15T02:40:47.683Z,0.00
2019-03-15T02:41:47.909Z,0.00
2019-03-15T02:42:47.635Z,0.00
2019-03-15T02:43:47.614Z,0.00
2019-03-15T02:44:47.883Z,0.00
2019-03-15T02:45:47.568Z,0.00
2019-03-15T02:46:47.538Z,0.00
2019-03-15T02:47:47.808Z,0.00
2019-03-15T02:48:47.592Z,0.00
2019-03-15T02:49:47.466Z,0.00
2019-03-15T02:50:47.742Z,0.00
2019-03-15T02:51:47.413Z,0.00
2019-03-15T02:52:47.541Z,0.00
2019-03-15T02:53:47.397Z,0.00
2019-03-15T02:54:47.345Z,0.00
2019-03-15T02:55:48.221Z,0.00
2019-03-15T02:56:47.600Z,0.00
2019-03-15T02:57:47.270Z,0.00
2019-03-15T02:58:48.443Z,0.00
2019-03-15T02:59:47.594Z,0.00
2019-03-15T03:00:47.292Z,0.00
2019-03-15T03:01:47.271Z,0.00
2019-03-15T03:02:47.543Z,0.00
2019-03-15T03:03:47.552Z,0.00
2019-03-15T03:04:47.090Z,0.00
2019-03-15T03:05:47.077Z,0.00
2019-03-15T03:07:48.083Z,0.00
2019-03-15T03:08:46.997Z,0.00
2019-03-15T03:09:46.972Z,0.00
2019-03-15T03:10:47.199Z,0.00
2019-03-15T03:11:46.932Z,0.00
2019-03-15T03:12:46.907Z,0.00
2019-03-15T03:13:46.884Z,0.00
2019-03-15T03:14:46.851Z,0.00
2019-03-15T03:15:46.943Z,0.00
2019-03-15T03:17:47.080Z,0.00
2019-03-15T03:18:46.749Z,0.00
2019-03-15T03:19:48.244Z,0.00
2019-03-15T03:20:48.200Z,0.00
2019-03-15T03:21:46.683Z,0.00
2019-03-15T03:22:46.656Z,0.00
2019-03-15T03:23:46.628Z,0.00
2019-03-15T03:24:47.189Z,0.00
2019-03-15T03:25:46.593Z,0.00
2019-03-15T03:26:46.559Z,0.00
2019-03-15T03:27:46.629Z,0.00
2019-03-15T03:29:47.030Z,0.00
2019-03-15T03:30:47.080Z,0.00
2019-03-15T03:31:46.733Z,0.00
2019-03-15T03:32:46.413Z,0.00
2019-03-15T03:33:46.828Z,0.00
2019-03-15T03:34:46.806Z,0.00
2019-03-15T03:35:46.333Z,0.00
2019-03-15T03:36:46.405Z,0.00
2019-03-15T03:37:46.282Z,0.00
2019-03-15T03:38:46.559Z,0.00
2019-03-15T03:39:46.233Z,0.00
2019-03-15T03:40:46.214Z,0.00
2019-03-15T03:41:46.206Z,0.00
2019-03-15T03:42:46.166Z,0.00
2019-03-15T03:43:46.138Z,0.00
2019-03-15T03:44:46.211Z,0.00
2019-03-15T03:45:46.385Z,0.00
2019-03-15T03:46:46.195Z,0.00
2019-03-15T03:47:46.053Z,0.00
2019-03-15T03:48:46.076Z,0.00
2019-03-15T03:49:46.106Z,0.00
2019-03-15T03:50:46.072Z,0.00
2019-03-15T03:51:46.248Z,0.00
2019-03-15T03:53:45.994Z,0.00
2019-03-15T03:55:45.846Z,0.00
2019-03-15T03:56:45.831Z,0.00
2019-03-15T03:57:46.151Z,0.00
2019-03-15T03:58:45.770Z,0.00
2019-03-15T03:59:45.789Z,0.00
2019-03-15T04:00:45.779Z,0.00
2019-03-15T04:01:45.897Z,0.00
2019-03-15T04:02:45.677Z,0.00
2019-03-15T04:03:45.962Z,0.00
2019-03-15T04:05:45.707Z,0.00
2019-03-15T04:06:45.582Z,0.00
2019-03-15T04:08:45.680Z,0.00
2019-03-15T04:09:48.207Z,0.00
2019-03-15T04:10:45.779Z,0.00
2019-03-15T04:12:45.427Z,0.00
2019-03-15T04:13:45.407Z,0.00
2019-03-15T04:14:45.403Z,0.00
2019-03-15T04:18:45.585Z,0.00
2019-03-15T04:19:45.321Z,0.00
2019-03-15T04:20:45.351Z,0.00
2019-03-15T04:21:45.236Z,0.00
2019-03-15T04:22:45.326Z,0.00
2019-03-15T04:23:45.213Z,0.00
2019-03-15T04:24:45.198Z,0.00
2019-03-15T04:26:45.395Z,0.00
2019-03-15T04:27:45.399Z,0.00
2019-03-15T04:29:45.016Z,0.00
2019-03-15T04:30:44.992Z,0.00
2019-03-15T04:31:44.978Z,0.00
2019-03-15T04:32:46.466Z,0.00
2019-03-15T04:33:45.222Z,0.00
2019-03-15T04:34:44.908Z,0.00
2019-03-15T04:35:44.929Z,0.00
2019-03-15T04:37:45.141Z,0.00
2019-03-15T04:38:44.794Z,0.00
2019-03-15T04:39:44.792Z,0.00
2019-03-15T04:40:45.060Z,0.00
2019-03-15T04:41:44.749Z,0.00
2019-03-15T04:42:44.723Z,0.00
2019-03-15T04:43:44.670Z,0.00
2019-03-15T04:44:44.659Z,0.00
2019-03-15T04:45:45.295Z,0.00
2019-03-15T04:46:44.603Z,0.00
2019-03-15T04:47:44.894Z,0.00
2019-03-15T04:48:44.869Z,0.00
2019-03-15T04:49:44.520Z,0.00
2019-03-15T04:50:44.504Z,0.00
2019-03-15T04:51:44.485Z,0.00
2019-03-15T04:53:44.689Z,0.00
2019-03-15T04:55:44.376Z,0.00
2019-03-15T04:56:44.348Z,0.00
2019-03-15T04:57:44.325Z,0.00
2019-03-15T04:59:44.534Z,0.00
2019-03-15T05:00:44.253Z,0.00
2019-03-15T05:01:44.341Z,0.00
2019-03-15T05:03:44.186Z,4.00
2019-03-15T05:04:44.158Z,4.00
2019-03-15T05:05:44.161Z,0.00
2019-03-15T05:06:44.406Z,4.00
2019-03-15T05:07:44.181Z,4.00
2019-03-15T05:09:44.033Z,4.00
2019-03-15T05:10:44.006Z,4.00
2019-03-15T05:12:44.267Z,8.00
2019-03-15T05:13:43.933Z,12.00
2019-03-15T05:14:43.939Z,8.00
2019-03-15T05:15:43.895Z,12.00
2019-03-15T05:16:43.862Z,16.00
2019-03-15T05:17:43.838Z,20.00
2019-03-15T05:19:44.091Z,28.00
2019-03-15T05:20:43.775Z,28.00
2019-03-15T05:21:43.747Z,32.00
2019-03-15T05:22:43.769Z,44.00
2019-03-15T05:23:43.689Z,48.00
2019-03-15T05:24:43.761Z,56.00
2019-03-15T05:25:43.894Z,64.00
2019-03-15T05:26:43.627Z,76.00
2019-03-15T05:27:43.595Z,80.00
2019-03-15T05:28:43.870Z,96.00
2019-03-15T05:29:44.391Z,108.00
2019-03-15T05:31:43.798Z,140.00
2019-03-15T05:32:43.477Z,132.00
2019-03-15T05:33:43.456Z,140.00
2019-03-15T05:35:44.111Z,156.00
2019-03-15T05:36:43.530Z,168.00
2019-03-15T05:37:43.670Z,168.00
2019-03-15T05:38:43.528Z,204.00
2019-03-15T05:39:43.325Z,216.00
2019-03-15T05:40:43.283Z,260.00
2019-03-15T05:41:43.265Z,280.00
2019-03-15T05:42:43.338Z,264.00
2019-03-15T05:43:43.559Z,324.00
2019-03-15T05:44:43.195Z,348.00
2019-03-15T05:45:43.255Z,392.00
2019-03-15T05:46:43.134Z,400.00
2019-03-15T05:47:43.108Z,440.00
2019-03-15T05:48:43.094Z,476.00
2019-03-15T05:50:43.339Z,484.00
2019-03-15T05:51:43.018Z,552.00
2019-03-15T05:52:43.009Z,504.00
2019-03-15T05:53:42.992Z,496.00
2019-03-15T05:54:43.003Z,568.00
2019-03-15T05:55:43.100Z,548.00
2019-03-15T05:57:43.139Z,576.00
2019-03-15T05:58:42.870Z,520.00
2019-03-15T05:59:42.839Z,568.00
2019-03-15T06:01:42.772Z,572.00
2019-03-15T06:02:42.763Z,700.00
2019-03-15T06:03:48.392Z,644.00
2019-03-15T06:04:43.007Z,744.00
2019-03-15T06:05:42.674Z,888.00
2019-03-15T06:06:42.700Z,960.00
2019-03-15T06:08:42.620Z,1108.00
2019-03-15T06:09:42.697Z,1140.00
2019-03-15T06:11:42.901Z,1244.00
2019-03-15T06:12:42.634Z,1268.00
2019-03-15T06:13:42.537Z,1484.00
2019-03-15T06:14:42.460Z,1644.00
2019-03-15T06:15:42.438Z,1488.00
2019-03-15T06:16:42.532Z,1696.00
2019-03-15T06:17:42.838Z,1728.00
2019-03-15T06:18:42.376Z,1652.00
2019-03-15T06:19:42.359Z,1808.00
2019-03-15T06:20:42.321Z,1716.00
2019-03-15T06:21:42.301Z,2000.00
2019-03-15T06:22:42.270Z,2232.00
2019-03-15T06:23:42.253Z,1852.00
2019-03-15T06:24:42.584Z,2112.00
2019-03-15T06:25:42.201Z,2352.00
2019-03-15T06:26:42.191Z,2460.00
2019-03-15T06:27:42.606Z,2092.00
2019-03-15T06:28:43.217Z,2188.00
2019-03-15T06:29:42.541Z,2508.00
2019-03-15T06:30:42.891Z,2636.00
2019-03-15T06:31:42.930Z,2668.00
2019-03-15T06:32:42.570Z,2784.00
2019-03-15T06:33:42.014Z,2424.00
2019-03-15T06:34:42.298Z,2960.00
2019-03-15T06:35:41.975Z,3236.00
2019-03-15T06:36:41.998Z,2860.00
2019-03-15T06:37:42.214Z,2796.00
2019-03-15T06:39:41.867Z,2428.00
2019-03-15T06:40:42.184Z,2060.00
2019-03-15T06:41:41.816Z,2408.00
2019-03-15T06:42:41.790Z,2204.00
2019-03-15T06:43:42.026Z,2196.00
2019-03-15T06:44:41.744Z,2316.00
2019-03-15T06:45:42.089Z,2428.00
2019-03-15T06:46:41.701Z,2684.00
2019-03-15T06:47:41.700Z,2780.00
2019-03-15T06:48:44.879Z,3152.00
2019-03-15T06:50:41.929Z,3300.00
2019-03-15T06:51:41.636Z,3620.00
2019-03-15T06:52:41.721Z,3604.00
2019-03-15T06:53:41.634Z,3880.00
2019-03-15T06:54:41.511Z,4300.00
2019-03-15T06:55:41.491Z,3600.00
2019-03-15T06:56:42.664Z,4100.00
2019-03-15T06:57:41.438Z,4820.00
2019-03-15T06:58:41.428Z,5340.00
2019-03-15T06:59:41.395Z,5176.00
2019-03-15T07:00:41.380Z,4248.00
2019-03-15T07:01:41.355Z,4088.00
2019-03-15T07:02:41.328Z,3932.00
2019-03-15T07:03:41.646Z,4216.00
2019-03-15T07:04:41.297Z,4800.00
2019-03-15T07:05:41.283Z,4716.00
2019-03-15T07:06:41.249Z,5024.00
2019-03-15T07:07:41.207Z,5232.00
2019-03-15T07:09:41.730Z,3900.00
2019-03-15T07:10:44.021Z,3876.00
2019-03-15T07:11:41.144Z,4388.00
2019-03-15T07:12:41.114Z,4396.00
2019-03-15T07:13:41.091Z,4656.00
2019-03-15T07:14:41.070Z,5380.00
2019-03-15T07:15:44.157Z,5748.00
2019-03-15T07:16:41.090Z,5904.00
2019-03-15T07:17:41.748Z,5896.00
2019-03-15T07:18:41.029Z,5952.00
2019-03-15T07:21:41.239Z,5924.00
2019-03-15T07:22:41.557Z,5312.00
2019-03-15T07:23:40.860Z,5880.00
2019-03-15T07:24:43.607Z,6192.00
2019-03-15T07:25:40.866Z,6380.00
2019-03-15T07:27:42.789Z,6600.00
2019-03-15T07:28:40.728Z,6136.00
2019-03-15T07:29:40.735Z,6168.00
2019-03-15T07:30:40.688Z,6444.00
2019-03-15T07:31:40.661Z,6672.00
2019-03-15T07:33:40.807Z,5452.00
2019-03-15T07:34:41.376Z,6164.00
2019-03-15T07:35:40.579Z,6636.00
2019-03-15T07:36:40.546Z,6324.00
2019-03-15T07:37:40.529Z,5820.00
2019-03-15T07:38:40.512Z,5768.00
2019-03-15T07:39:40.499Z,6152.00
2019-03-15T07:40:40.707Z,5964.00
2019-03-15T07:41:40.446Z,5920.00
2019-03-15T07:42:40.413Z,6696.00
2019-03-15T07:43:40.390Z,6624.00
2019-03-15T07:44:40.696Z,7016.00
2019-03-15T07:45:40.356Z,8128.00
2019-03-15T07:46:40.693Z,8816.00
2019-03-15T07:47:40.325Z,9548.00
2019-03-15T07:48:40.395Z,9300.00
2019-03-15T07:49:40.255Z,9768.00
2019-03-15T07:50:40.235Z,8652.00
2019-03-15T07:51:40.212Z,9816.00
2019-03-15T07:52:40.591Z,8776.00
2019-03-15T07:53:40.185Z,8960.00
2019-03-15T07:54:40.142Z,9152.00
2019-03-15T07:55:40.130Z,9152.00
2019-03-15T07:56:40.105Z,9420.00
2019-03-15T07:57:40.083Z,9292.00
2019-03-15T07:58:40.311Z,9004.00
2019-03-15T07:59:40.043Z,9116.00
2019-03-15T08:00:40.041Z,9672.00
2019-03-15T08:01:39.994Z,9832.00
2019-03-15T08:02:39.982Z,9584.00
2019-03-15T08:04:39.926Z,7392.00
2019-03-15T08:05:40.229Z,8244.00
2019-03-15T08:06:39.918Z,8556.00
2019-03-15T08:09:39.823Z,11428.00
2019-03-15T08:10:39.801Z,9572.00
2019-03-15T08:11:40.102Z,8556.00
2019-03-15T08:12:39.784Z,7488.00
2019-03-15T08:13:39.846Z,6472.00
2019-03-15T08:14:39.786Z,5820.00
2019-03-15T08:18:39.943Z,7208.00
2019-03-15T08:27:39.465Z,10744.00
2019-03-15T08:28:39.425Z,11044.00
2019-03-15T08:29:39.402Z,11252.00
2019-03-15T08:30:39.383Z,11800.00
2019-03-15T08:31:39.663Z,11348.00
2019-03-15T08:32:39.448Z,11484.00
2019-03-15T08:33:39.351Z,11500.00
2019-03-15T08:34:39.311Z,11336.00
2019-03-15T08:35:39.271Z,11268.00
2019-03-15T08:36:39.243Z,11084.00
2019-03-15T08:37:39.544Z,10804.00
2019-03-15T08:39:39.188Z,11120.00
2019-03-15T08:42:39.325Z,12440.00
2019-03-15T08:47:39.047Z,8008.00
2019-03-15T08:49:39.353Z,7696.00
2019-03-15T08:50:38.962Z,6444.00
2019-03-15T08:51:39.011Z,6172.00
2019-03-15T08:52:41.927Z,6684.00
2019-03-15T08:53:38.919Z,5832.00
2019-03-15T08:54:38.890Z,5244.00
2019-03-15T08:55:40.062Z,7140.00
2019-03-15T08:56:38.896Z,5656.00
2019-03-15T08:57:38.827Z,5836.00
2019-03-15T08:58:38.823Z,4776.00
2019-03-15T08:59:52.373Z,6356.00
2019-03-15T09:00:38.756Z,5672.00
2019-03-15T09:01:39.075Z,6152.00
2019-03-15T09:02:39.333Z,7640.00
2019-03-15T09:03:38.742Z,7000.00
2019-03-15T09:04:38.659Z,8092.00
2019-03-15T09:05:38.713Z,10068.00
2019-03-15T09:06:40.988Z,10368.00
2019-03-15T09:07:38.970Z,10852.00
2019-03-15T09:08:38.648Z,12736.00
2019-03-15T09:10:38.542Z,10392.00
2019-03-15T09:11:38.507Z,8480.00
2019-03-15T09:12:38.519Z,7028.00
2019-03-15T09:13:38.837Z,7836.00
2019-03-15T09:14:38.467Z,5468.00
2019-03-15T09:16:38.415Z,10968.00
2019-03-15T09:17:38.459Z,8528.00
2019-03-15T09:19:38.741Z,11004.00
2019-03-15T09:20:38.456Z,11248.00
2019-03-15T09:21:38.321Z,10576.00
2019-03-15T09:22:38.338Z,11608.00
2019-03-15T09:23:38.313Z,10920.00
2019-03-15T09:24:38.241Z,11904.00
2019-03-15T09:25:38.478Z,12108.00
2019-03-15T09:26:38.205Z,11780.00
2019-03-15T09:27:38.187Z,12156.00
2019-03-15T09:28:38.252Z,11940.00
2019-03-15T09:29:38.131Z,12336.00
2019-03-15T09:30:38.183Z,13136.00
2019-03-15T09:31:47.801Z,12416.00
2019-03-15T09:32:38.077Z,14620.00
2019-03-15T09:33:38.074Z,14872.00
2019-03-15T09:34:38.089Z,13496.00
2019-03-15T09:36:49.555Z,11508.00
2019-03-15T09:37:38.286Z,9496.00
2019-03-15T09:40:38.006Z,10164.00
2019-03-15T09:41:39.727Z,11500.00
2019-03-15T09:42:37.861Z,12360.00
2019-03-15T09:43:38.170Z,12540.00
2019-03-15T09:44:37.824Z,15120.00
2019-03-15T09:46:37.842Z,9860.00
2019-03-15T09:47:37.764Z,7948.00
2019-03-15T09:48:37.839Z,8820.00
2019-03-15T09:49:37.743Z,10256.00
2019-03-15T09:50:50.597Z,10576.00
2019-03-15T09:51:37.694Z,11044.00
2019-03-15T09:53:37.654Z,10684.00
2019-03-15T09:54:37.639Z,11428.00
2019-03-15T09:55:37.598Z,8020.00
2019-03-15T09:56:38.976Z,7360.00
2019-03-15T09:57:37.562Z,7236.00
2019-03-15T09:58:37.611Z,8360.00
2019-03-15T09:59:37.552Z,11444.00
2019-03-15T10:00:37.503Z,13252.00
2019-03-15T10:01:37.507Z,11044.00
2019-03-15T10:02:37.780Z,10484.00
2019-03-15T10:03:37.446Z,10016.00
2019-03-15T10:04:37.413Z,8572.00
2019-03-15T10:05:37.479Z,7332.00
2019-03-15T10:06:37.373Z,5772.00
2019-03-15T10:07:38.826Z,5200.00
2019-03-15T10:08:37.637Z,4756.00
2019-03-15T10:09:45.947Z,6072.00
2019-03-15T10:10:38.317Z,6468.00
2019-03-15T10:11:37.396Z,7124.00
2019-03-15T10:12:37.261Z,6672.00
2019-03-15T10:13:37.977Z,7144.00
2019-03-15T10:14:37.522Z,9088.00
2019-03-15T10:15:37.302Z,7500.00
2019-03-15T10:17:37.208Z,9184.00
2019-03-15T10:18:37.225Z,10032.00
2019-03-15T10:19:37.135Z,10968.00
2019-03-15T10:20:37.441Z,13060.00
2019-03-15T10:21:37.086Z,13096.00
2019-03-15T10:22:37.064Z,11080.00
2019-03-15T10:23:37.029Z,8888.00
2019-03-15T10:24:37.026Z,8772.00
2019-03-15T10:25:46.875Z,9128.00
2019-03-15T10:26:37.281Z,8100.00
2019-03-15T10:27:37.049Z,7984.00
2019-03-15T10:28:36.941Z,8436.00
2019-03-15T10:29:36.928Z,8792.00
2019-03-15T10:30:36.897Z,9376.00
2019-03-15T10:31:36.871Z,8716.00
2019-03-15T10:32:37.197Z,6568.00
2019-03-15T10:33:49.562Z,6116.00
2019-03-15T10:35:36.773Z,5848.00
2019-03-15T10:37:36.794Z,6736.00
2019-03-15T10:38:37.013Z,5128.00
2019-03-15T10:39:36.697Z,8036.00
2019-03-15T10:41:38.274Z,8356.00
2019-03-15T10:42:37.453Z,7508.00
2019-03-15T10:43:36.655Z,8272.00
2019-03-15T10:44:36.911Z,9440.00
2019-03-15T10:46:36.654Z,5956.00
2019-03-15T10:47:36.609Z,6176.00
2019-03-15T10:48:36.503Z,6828.00
2019-03-15T10:49:36.511Z,7496.00
2019-03-15T10:50:36.842Z,6684.00
2019-03-15T10:51:36.428Z,7084.00
2019-03-15T10:52:36.405Z,8496.00
2019-03-15T10:53:36.484Z,7292.00
2019-03-15T10:54:36.373Z,9124.00
2019-03-15T10:55:36.348Z,8272.00
2019-03-15T10:56:36.817Z,7724.00
2019-03-15T10:57:37.263Z,7332.00
2019-03-15T10:58:36.280Z,7540.00
2019-03-15T10:59:36.273Z,11036.00
2019-03-15T11:00:36.252Z,11528.00
2019-03-15T11:01:36.311Z,9320.00
2019-03-15T11:02:36.576Z,10940.00
2019-03-15T11:03:36.244Z,12328.00
2019-03-15T11:05:36.249Z,8020.00
2019-03-15T11:06:36.096Z,9060.00
2019-03-15T11:07:36.423Z,9180.00
2019-03-15T11:09:36.331Z,6524.00
2019-03-15T11:10:36.023Z,7616.00
2019-03-15T11:11:36.041Z,10000.00
2019-03-15T11:12:35.970Z,7540.00
2019-03-15T11:13:35.949Z,8112.00
2019-03-15T11:14:35.947Z,9944.00
2019-03-15T11:15:36.219Z,9728.00
2019-03-15T11:16:35.895Z,9352.00
2019-03-15T11:17:35.987Z,9356.00
2019-03-15T11:18:35.941Z,9260.00
2019-03-15T11:19:35.909Z,8492.00
2019-03-15T11:20:35.837Z,11052.00
2019-03-15T11:21:36.163Z,10600.00
2019-03-15T11:22:35.740Z,7816.00
2019-03-15T11:24:35.740Z,7620.00
2019-03-15T11:25:35.741Z,9468.00
2019-03-15T11:26:35.661Z,7920.00
2019-03-15T11:27:35.880Z,9152.00
2019-03-15T11:28:35.627Z,7476.00
2019-03-15T11:29:35.603Z,9000.00
2019-03-15T11:30:35.599Z,9624.00
2019-03-15T11:31:35.605Z,8652.00
2019-03-15T11:32:35.515Z,11992.00
2019-03-15T11:33:35.821Z,11508.00
2019-03-15T11:35:35.450Z,11052.00
2019-03-15T11:36:35.464Z,12156.00
2019-03-15T11:37:35.945Z,13848.00
2019-03-15T11:38:35.516Z,16536.00
2019-03-15T11:40:37.861Z,12456.00
2019-03-15T11:42:35.512Z,15488.00
2019-03-15T11:43:35.283Z,10540.00
2019-03-15T11:44:35.329Z,16376.00
2019-03-15T11:45:35.561Z,12552.00
2019-03-15T11:46:35.339Z,9704.00
2019-03-15T11:47:46.330Z,11004.00
2019-03-15T11:48:35.181Z,8980.00
2019-03-15T11:49:35.148Z,10236.00
2019-03-15T11:50:35.131Z,7488.00
2019-03-15T11:51:35.517Z,9544.00
2019-03-15T11:53:35.173Z,8096.00
2019-03-15T11:54:35.052Z,6840.00
2019-03-15T11:55:35.011Z,8024.00
2019-03-15T11:56:35.015Z,7896.00
2019-03-15T11:57:35.388Z,7272.00
2019-03-15T11:58:34.976Z,9296.00
2019-03-15T11:59:36.251Z,9580.00
2019-03-15T12:00:34.918Z,8736.00
2019-03-15T12:01:37.613Z,9600.00
2019-03-15T12:02:34.924Z,9968.00
2019-03-15T12:03:35.271Z,12756.00
2019-03-15T12:04:34.865Z,8796.00
2019-03-15T12:05:34.842Z,10800.00
2019-03-15T12:06:34.834Z,10512.00
2019-03-15T12:07:34.850Z,8656.00
2019-03-15T12:08:34.738Z,8068.00
2019-03-15T12:09:34.969Z,8888.00
2019-03-15T12:10:34.688Z,8208.00
2019-03-15T12:11:34.663Z,6892.00
2019-03-15T12:12:34.650Z,5532.00
2019-03-15T12:13:34.749Z,5424.00
2019-03-15T12:14:40.887Z,6356.00
2019-03-15T12:15:36.596Z,5052.00
2019-03-15T12:16:34.587Z,9572.00
2019-03-15T12:17:34.534Z,10868.00
2019-03-15T12:18:34.682Z,7016.00
2019-03-15T12:19:34.509Z,6904.00
2019-03-15T12:20:34.508Z,7492.00
2019-03-15T12:21:34.800Z,6892.00
2019-03-15T12:22:34.449Z,4780.00
2019-03-15T12:24:34.384Z,5240.00
2019-03-15T12:25:34.453Z,4268.00
2019-03-15T12:26:40.164Z,7100.00
2019-03-15T12:27:34.660Z,10052.00
2019-03-15T12:29:34.406Z,11912.00
2019-03-15T12:31:34.232Z,10532.00
2019-03-15T12:32:34.208Z,8080.00
2019-03-15T12:33:34.179Z,9092.00
2019-03-15T12:34:34.592Z,6860.00
2019-03-15T12:36:34.127Z,6316.00
2019-03-15T12:37:35.147Z,5280.00
2019-03-15T12:39:34.378Z,7352.00
2019-03-15T12:41:34.311Z,12428.00
2019-03-15T12:42:34.009Z,11084.00
2019-03-15T12:43:34.062Z,10380.00
2019-03-15T12:45:33.926Z,9900.00
2019-03-15T12:46:34.028Z,8852.00
2019-03-15T12:47:34.220Z,7592.00
2019-03-15T12:48:33.852Z,7708.00
2019-03-15T12:49:33.817Z,6056.00
2019-03-15T12:50:33.800Z,6220.00
2019-03-15T12:52:46.374Z,6196.00
2019-03-15T12:53:34.072Z,5984.00
2019-03-15T12:54:33.724Z,5828.00
2019-03-15T12:55:33.751Z,3248.00
2019-03-15T12:57:34.138Z,4220.00
2019-03-15T12:58:33.670Z,4064.00
2019-03-15T13:01:33.940Z,3660.00
2019-03-15T13:02:50.205Z,4432.00
2019-03-15T13:04:03.102Z,5180.00
2019-03-15T13:04:33.976Z,6080.00
2019-03-15T13:05:33.522Z,5332.00
2019-03-15T13:06:33.764Z,5376.00
2019-03-15T13:07:33.688Z,5460.00
2019-03-15T13:08:33.694Z,4656.00
2019-03-15T13:09:33.637Z,4584.00
2019-03-15T13:10:34.865Z,3320.00
2019-03-15T13:12:34.357Z,3320.00
2019-03-15T13:13:33.709Z,4448.00
2019-03-15T13:14:33.336Z,3792.00
2019-03-15T13:15:33.248Z,5604.00
2019-03-15T13:16:33.233Z,6832.00
2019-03-15T13:17:33.327Z,5596.00
2019-03-15T13:18:33.882Z,5364.00
2019-03-15T13:19:33.163Z,5052.00
2019-03-15T13:20:38.703Z,5040.00
2019-03-15T13:22:33.623Z,5472.00
2019-03-15T13:23:34.239Z,5372.00
2019-03-15T13:26:33.453Z,8604.00
2019-03-15T13:27:33.138Z,11672.00
2019-03-15T13:28:33.103Z,10624.00
2019-03-15T13:30:32.958Z,9068.00
2019-03-15T13:31:32.974Z,7408.00
2019-03-15T13:33:32.885Z,4480.00
2019-03-15T13:35:32.821Z,4164.00
2019-03-15T13:36:32.927Z,4996.00
2019-03-15T13:37:33.116Z,4888.00
2019-03-15T13:38:32.853Z,6496.00
2019-03-15T13:40:32.693Z,10720.00
2019-03-15T13:41:32.679Z,13060.00
2019-03-15T13:42:32.657Z,11180.00
2019-03-15T13:43:32.939Z,10888.00
2019-03-15T13:44:32.687Z,7576.00
2019-03-15T13:45:32.719Z,6524.00
2019-03-15T13:46:32.579Z,8516.00
2019-03-15T13:47:32.588Z,11088.00
2019-03-15T13:48:32.541Z,11028.00
2019-03-15T13:49:32.763Z,12488.00
2019-03-15T13:50:32.495Z,12748.00
2019-03-15T13:51:32.525Z,12076.00
2019-03-15T13:52:32.444Z,12404.00
2019-03-15T13:53:32.445Z,12132.00
2019-03-15T13:54:33.140Z,14620.00
2019-03-15T13:55:32.709Z,13408.00
2019-03-15T13:56:32.368Z,10712.00
2019-03-15T13:57:32.374Z,5884.00
2019-03-15T13:58:32.347Z,6064.00
2019-03-15T13:59:32.313Z,9484.00
2019-03-15T14:00:32.291Z,7352.00
2019-03-15T14:03:32.218Z,3936.00
2019-03-15T14:04:32.196Z,6252.00
2019-03-15T14:05:32.226Z,7484.00
2019-03-15T14:06:32.295Z,8992.00
2019-03-15T14:09:32.115Z,8512.00
2019-03-15T14:10:32.075Z,7128.00
2019-03-15T14:11:32.054Z,9756.00
2019-03-15T14:12:32.029Z,12020.00
2019-03-15T14:13:32.318Z,13688.00
2019-03-15T14:14:32.000Z,13484.00
2019-03-15T14:15:31.984Z,11548.00
2019-03-15T14:16:32.114Z,9404.00
2019-03-15T14:17:32.685Z,8444.00
2019-03-15T14:18:31.959Z,9452.00
2019-03-15T14:19:32.194Z,9768.00
2019-03-15T14:20:31.957Z,8516.00
2019-03-15T14:21:31.884Z,9332.00
2019-03-15T14:22:31.934Z,5908.00
2019-03-15T14:23:31.821Z,5756.00